sensor_id;sensor_type;location;lat;lon;timestamp;pressure;altitude;pressure_sealevel;temperature;humidity
33191;BME280;19554;42.652;23.364;2023-02-16T00:00:30;95791.25;;;1.88;60.42
33191;BME280;19554;42.652;23.364;2023-02-16T00:02:56;95880.97;;;2.40;60.74
33191;BME280;19554;42.652;23.364;2023-02-16T00:07:52;95868.78;;;2.32;60.90
33191;BME280;19554;42.652;23.364;2023-02-16T00:10:18;95877.50;;;2.32;60.65
33191;BME280;19554;42.652;23.364;2023-02-16T00:12:43;95864.78;;;2.23;60.87
33191;BME280;19554;42.652;23.364;2023-02-16T00:15:28;95875.09;;;2.31;60.30
33191;BME280;19554;42.652;23.364;2023-02-16T00:17:54;95872.44;;;2.31;60.70
33191;BME280;19554;42.652;23.364;2023-02-16T00:20:20;95864.78;;;2.23;60.76
33191;BME280;19554;42.652;23.364;2023-02-16T00:22:46;95879.75;;;2.29;61.03
33191;BME280;19554;42.652;23.364;2023-02-16T00:25:11;95871.25;;;2.27;60.96
33191;BME280;19554;42.652;23.364;2023-02-16T00:27:37;95819.00;;;1.97;59.81
33191;BME280;19554;42.652;23.364;2023-02-16T00:30:12;95872.84;;;2.28;60.15
33191;BME280;19554;42.652;23.364;2023-02-16T00:32:38;95871.84;;;2.29;60.40
33191;BME280;19554;42.652;23.364;2023-02-16T00:35:08;95876.09;;;2.30;60.19
33191;BME280;19554;42.652;23.364;2023-02-16T00:37:36;95817.78;;;1.93;60.89
33191;BME280;19554;42.652;23.364;2023-02-16T00:40:02;95851.78;;;2.14;60.88
33191;BME280;19554;42.652;23.364;2023-02-16T00:42:30;95871.44;;;2.25;60.68
33191;BME280;19554;42.652;23.364;2023-02-16T00:44:57;95852.19;;;2.05;61.00
33191;BME280;19554;42.652;23.364;2023-02-16T00:47:34;95840.47;;;1.94;60.88
33191;BME280;19554;42.652;23.364;2023-02-16T00:50:03;95873.06;;;2.20;60.83
33191;BME280;19554;42.652;23.364;2023-02-16T00:52:36;95858.50;;;2.10;60.85
33191;BME280;19554;42.652;23.364;2023-02-16T00:55:10;95870.84;;;2.17;60.90
33191;BME280;19554;42.652;23.364;2023-02-16T00:57:40;95870.84;;;2.17;61.27
33191;BME280;19554;42.652;23.364;2023-02-16T01:02:34;95850.59;;;1.97;60.06
33191;BME280;19554;42.652;23.364;2023-02-16T01:05:00;95867.59;;;2.08;60.19
33191;BME280;19554;42.652;23.364;2023-02-16T01:07:25;95791.44;;;1.53;60.53
33191;BME280;19554;42.652;23.364;2023-02-16T01:10:10;95823.44;;;1.63;60.90
33191;BME280;19554;42.652;23.364;2023-02-16T01:12:54;95863.56;;;1.92;61.33
33191;BME280;19554;42.652;23.364;2023-02-16T01:15:21;95859.28;;;1.91;61.25
33191;BME280;19554;42.652;23.364;2023-02-16T01:17:48;95856.66;;;1.91;61.79
33191;BME280;19554;42.652;23.364;2023-02-16T01:20:20;95856.66;;;1.91;61.46
33191;BME280;19554;42.652;23.364;2023-02-16T01:22:46;95851.38;;;1.91;61.39
33191;BME280;19554;42.652;23.364;2023-02-16T01:25:12;95852.41;;;1.90;61.73
33191;BME280;19554;42.652;23.364;2023-02-16T01:27:39;95843.72;;;1.89;62.47
33191;BME280;19554;42.652;23.364;2023-02-16T01:30:07;95848.16;;;1.89;62.20
33191;BME280;19554;42.652;23.364;2023-02-16T01:32:32;95829.53;;;1.84;61.63
33191;BME280;19554;42.652;23.364;2023-02-16T01:34:58;95840.06;;;1.97;62.18
33191;BME280;19554;42.652;23.364;2023-02-16T01:37:24;95819.00;;;1.90;61.89
33191;BME280;19554;42.652;23.364;2023-02-16T01:39:49;95742.88;;;1.36;60.78
33191;BME280;19554;42.652;23.364;2023-02-16T01:42:40;95840.06;;;1.97;60.55
33191;BME280;19554;42.652;23.364;2023-02-16T01:45:17;95771.03;;;1.62;61.40
33191;BME280;19554;42.652;23.364;2023-02-16T01:47:51;95828.72;;;1.97;61.26
33191;BME280;19554;42.652;23.364;2023-02-16T01:50:21;95829.13;;;1.94;61.37
33191;BME280;19554;42.652;23.364;2023-02-16T01:52:55;95826.50;;;1.87;61.08
33191;BME280;19554;42.652;23.364;2023-02-16T01:55:26;95826.88;;;1.84;60.94
33191;BME280;19554;42.652;23.364;2023-02-16T01:58:14;95706.03;;;1.09;61.32
33191;BME280;19554;42.652;23.364;2023-02-16T02:03:27;95828.94;;;1.69;61.73
33191;BME280;19554;42.652;23.364;2023-02-16T02:06:26;95833.97;;;1.63;61.24
33191;BME280;19554;42.652;23.364;2023-02-16T02:09:19;95826.47;;;1.60;61.50
33191;BME280;19554;42.652;23.364;2023-02-16T02:11:59;95828.69;;;1.57;61.82
33191;BME280;19554;42.652;23.364;2023-02-16T02:14:30;95824.66;;;1.54;61.76
33191;BME280;19554;42.652;23.364;2023-02-16T02:17:05;95826.28;;;1.55;61.92
33191;BME280;19554;42.652;23.364;2023-02-16T02:25:41;95831.53;;;1.55;61.69
33191;BME280;19554;42.652;23.364;2023-02-16T02:28:24;95834.56;;;1.52;61.74
33191;BME280;19554;42.652;23.364;2023-02-16T02:33:54;95824.28;;;1.57;61.52
33191;BME280;19554;42.652;23.364;2023-02-16T02:44:19;95807.84;;;1.42;61.29
33191;BME280;19554;42.652;23.364;2023-02-16T02:46:45;95700.53;;;0.71;62.30
33191;BME280;19554;42.652;23.364;2023-02-16T02:49:11;95753.97;;;1.05;62.29
33191;BME280;19554;42.652;23.364;2023-02-16T02:51:36;95818.16;;;1.50;61.38
33191;BME280;19554;42.652;23.364;2023-02-16T02:54:15;95814.13;;;1.48;61.49
33191;BME280;19554;42.652;23.364;2023-02-16T02:57:17;95814.94;;;1.48;61.13
33191;BME280;19554;42.652;23.364;2023-02-16T03:00:18;95823.41;;;1.50;61.32
33191;BME280;19554;42.652;23.364;2023-02-16T03:03:11;95758.03;;;1.14;61.43
33191;BME280;19554;42.652;23.364;2023-02-16T03:05:40;95813.31;;;1.47;61.52
33191;BME280;19554;42.652;23.364;2023-02-16T03:08:11;95817.16;;;1.51;61.58
33191;BME280;19554;42.652;23.364;2023-02-16T03:10:44;95806.00;;;1.36;61.31
33191;BME280;19554;42.652;23.364;2023-02-16T03:13:51;95819.56;;;1.46;60.40
33191;BME280;19554;42.652;23.364;2023-02-16T03:16:26;95817.34;;;1.36;59.78
33191;BME280;19554;42.652;23.364;2023-02-16T03:18:55;95825.25;;;1.43;60.01
33191;BME280;19554;42.652;23.364;2023-02-16T03:21:39;95818.56;;;1.34;59.60
33191;BME280;19554;42.652;23.364;2023-02-16T03:24:29;95819.75;;;1.31;58.98
33191;BME280;19554;42.652;23.364;2023-02-16T03:27:18;95820.97;;;1.29;59.85
33191;BME280;19554;42.652;23.364;2023-02-16T03:30:05;95735.69;;;0.70;61.30
33191;BME280;19554;42.652;23.364;2023-02-16T03:32:32;95820.53;;;1.18;61.18
33191;BME280;19554;42.652;23.364;2023-02-16T03:34:58;95824.56;;;1.14;60.76
33191;BME280;19554;42.652;23.364;2023-02-16T03:37:24;95821.75;;;1.16;61.74
33191;BME280;19554;42.652;23.364;2023-02-16T03:39:49;95813.66;;;1.17;62.46
33191;BME280;19554;42.652;23.364;2023-02-16T03:42:33;95813.69;;;1.24;63.04
33191;BME280;19554;42.652;23.364;2023-02-16T03:44:58;95814.91;;;1.28;63.23
33191;BME280;19554;42.652;23.364;2023-02-16T03:47:24;95818.97;;;1.31;63.63
33191;BME280;19554;42.652;23.364;2023-02-16T03:49:49;95765.09;;;1.00;63.83
33191;BME280;19554;42.652;23.364;2023-02-16T03:52:15;95819.16;;;1.36;63.42
33191;BME280;19554;42.652;23.364;2023-02-16T03:54:40;95816.53;;;1.36;62.52
33191;BME280;19554;42.652;23.364;2023-02-16T03:57:05;95820.56;;;1.32;61.78
33191;BME280;19554;42.652;23.364;2023-02-16T03:59:31;95821.97;;;1.28;61.37
33191;BME280;19554;42.652;23.364;2023-02-16T04:01:56;95817.50;;;1.22;61.95
33191;BME280;19554;42.652;23.364;2023-02-16T04:04:22;95811.63;;;1.19;61.73
33191;BME280;19554;42.652;23.364;2023-02-16T04:06:47;95799.69;;;1.10;61.96
33191;BME280;19554;42.652;23.364;2023-02-16T04:09:12;95817.72;;;1.13;62.08
33191;BME280;19554;42.652;23.364;2023-02-16T04:11:38;95797.84;;;1.04;61.74
33191;BME280;19554;42.652;23.364;2023-02-16T04:14:22;95812.81;;;1.04;61.30
33191;BME280;19554;42.652;23.364;2023-02-16T04:16:47;95808.75;;;1.01;61.33
33191;BME280;19554;42.652;23.364;2023-02-16T04:19:12;95774.31;;;0.76;61.13
33191;BME280;19554;42.652;23.364;2023-02-16T04:21:38;95686.88;;;0.28;60.89
33191;BME280;19554;42.652;23.364;2023-02-16T04:24:04;95801.28;;;0.98;60.98
33191;BME280;19554;42.652;23.364;2023-02-16T04:26:31;95805.50;;;0.99;61.10
33191;BME280;19554;42.652;23.364;2023-02-16T04:28:57;95771.69;;;0.76;61.42
33191;BME280;19554;42.652;23.364;2023-02-16T04:31:22;95802.69;;;0.94;60.82
33191;BME280;19554;42.652;23.364;2023-02-16T04:33:47;95808.53;;;0.89;61.23
33191;BME280;19554;42.652;23.364;2023-02-16T04:36:13;95806.72;;;0.90;60.09
33191;BME280;19554;42.652;23.364;2023-02-16T04:38:38;95805.69;;;0.84;59.96
33191;BME280;19554;42.652;23.364;2023-02-16T04:41:04;95801.59;;;0.75;61.47
33191;BME280;19554;42.652;23.364;2023-02-16T04:43:29;95806.59;;;0.63;62.60
33191;BME280;19554;42.652;23.364;2023-02-16T04:45:54;95809.81;;;0.52;63.62
33191;BME280;19554;42.652;23.364;2023-02-16T04:48:20;95808.13;;;0.44;63.30
33191;BME280;19554;42.652;23.364;2023-02-16T04:50:45;95812.06;;;0.27;64.27
33191;BME280;19554;42.652;23.364;2023-02-16T04:53:10;95814.00;;;0.12;65.80
33191;BME280;19554;42.652;23.364;2023-02-16T04:55:36;95813.97;;;0.05;65.72
33191;BME280;19554;42.652;23.364;2023-02-16T04:58:01;95812.91;;;-0.01;66.06
33191;BME280;19554;42.652;23.364;2023-02-16T05:00:27;95805.03;;;-0.01;66.03
33191;BME280;19554;42.652;23.364;2023-02-16T05:02:52;95829.75;;;0.12;66.46
33191;BME280;19554;42.652;23.364;2023-02-16T05:05:17;95818.88;;;0.15;66.10
33191;BME280;19554;42.652;23.364;2023-02-16T05:07:43;95688.22;;;-0.59;65.76
33191;BME280;19554;42.652;23.364;2023-02-16T05:10:08;95823.84;;;0.31;64.78
33191;BME280;19554;42.652;23.364;2023-02-16T05:12:34;95821.25;;;0.38;64.72
33191;BME280;19554;42.652;23.364;2023-02-16T05:15:18;95698.41;;;-0.43;62.87
33191;BME280;19554;42.652;23.364;2023-02-16T05:17:44;95831.97;;;0.43;63.06
33191;BME280;19554;42.652;23.364;2023-02-16T05:20:09;95833.56;;;0.44;62.27
33191;BME280;19554;42.652;23.364;2023-02-16T05:22:35;95785.13;;;0.12;62.04
33191;BME280;19554;42.652;23.364;2023-02-16T05:25:04;95781.50;;;0.13;62.29
33191;BME280;19554;42.652;23.364;2023-02-16T05:27:30;95800.75;;;0.27;61.86
33191;BME280;19554;42.652;23.364;2023-02-16T05:29:56;95832.22;;;0.48;61.92
33191;BME280;19554;42.652;23.364;2023-02-16T05:32:22;95834.84;;;0.55;62.61
33191;BME280;19554;42.652;23.364;2023-02-16T05:34:47;95838.53;;;0.60;62.92
33191;BME280;19554;42.652;23.364;2023-02-16T05:37:15;95839.75;;;0.64;62.56
33191;BME280;19554;42.652;23.364;2023-02-16T05:39:40;95843.84;;;0.74;62.43
33191;BME280;19554;42.652;23.364;2023-02-16T05:42:07;95841.88;;;0.82;62.24
33191;BME280;19554;42.652;23.364;2023-02-16T05:44:32;95841.09;;;0.95;61.93
33191;BME280;19554;42.652;23.364;2023-02-16T05:46:57;95846.41;;;1.08;60.54
33191;BME280;19554;42.652;23.364;2023-02-16T05:49:23;95848.88;;;1.23;60.22
33191;BME280;19554;42.652;23.364;2023-02-16T05:51:48;95758.19;;;0.86;59.71
33191;BME280;19554;42.652;23.364;2023-02-16T05:54:14;95726.22;;;0.76;59.93
33191;BME280;19554;42.652;23.364;2023-02-16T05:56:47;95801.75;;;1.35;59.66
33191;BME280;19554;42.652;23.364;2023-02-16T05:59:13;95846.13;;;1.84;59.08
33191;BME280;19554;42.652;23.364;2023-02-16T06:01:39;95845.94;;;1.99;58.99
33191;BME280;19554;42.652;23.364;2023-02-16T06:04:09;95814.75;;;1.96;58.41
33191;BME280;19554;42.652;23.364;2023-02-16T06:06:36;95846.91;;;2.38;58.91
33191;BME280;19554;42.652;23.364;2023-02-16T06:09:03;95796.28;;;2.29;57.57
33191;BME280;19554;42.652;23.364;2023-02-16T06:11:29;95834.09;;;2.61;56.16
33191;BME280;19554;42.652;23.364;2023-02-16T06:14:15;95829.78;;;2.80;55.57
33191;BME280;19554;42.652;23.364;2023-02-16T06:16:42;95856.00;;;3.14;54.76
33191;BME280;19554;42.652;23.364;2023-02-16T06:19:08;95846.63;;;3.18;53.80
33191;BME280;19554;42.652;23.364;2023-02-16T06:21:35;95854.72;;;3.29;53.78
33191;BME280;19554;42.652;23.364;2023-02-16T06:24:01;95862.00;;;3.34;53.42
33191;BME280;19554;42.652;23.364;2023-02-16T06:26:27;95867.03;;;3.42;54.29
33191;BME280;19554;42.652;23.364;2023-02-16T06:28:53;95869.16;;;3.59;53.36
33191;BME280;19554;42.652;23.364;2023-02-16T06:31:19;95875.66;;;3.63;53.40
33191;BME280;19554;42.652;23.364;2023-02-16T06:33:44;95879.66;;;3.72;53.61
33191;BME280;19554;42.652;23.364;2023-02-16T06:36:10;95877.19;;;3.77;53.84
33191;BME280;19554;42.652;23.364;2023-02-16T06:38:36;95879.13;;;3.88;54.28
33191;BME280;19554;42.652;23.364;2023-02-16T06:41:01;95886.91;;;4.08;54.02
33191;BME280;19554;42.652;23.364;2023-02-16T06:43:27;95852.16;;;4.11;54.35
33191;BME280;19554;42.652;23.364;2023-02-16T06:45:52;95790.53;;;3.92;53.73
33191;BME280;19554;42.652;23.364;2023-02-16T06:48:18;95880.66;;;4.53;53.71
33191;BME280;19554;42.652;23.364;2023-02-16T06:50:43;95882.44;;;4.59;53.91
33191;BME280;19554;42.652;23.364;2023-02-16T06:53:09;95867.88;;;4.68;53.54
33191;BME280;19554;42.652;23.364;2023-02-16T06:55:34;95879.78;;;4.59;53.92
33191;BME280;19554;42.652;23.364;2023-02-16T06:58:05;95878.84;;;4.28;54.83
33191;BME280;19554;42.652;23.364;2023-02-16T07:00:31;95870.63;;;4.36;54.42
33191;BME280;19554;42.652;23.364;2023-02-16T07:02:57;95880.03;;;4.32;55.57
33191;BME280;19554;42.652;23.364;2023-02-16T07:05:22;95877.97;;;4.34;55.95
33191;BME280;19554;42.652;23.364;2023-02-16T07:07:48;95881.41;;;4.60;55.68
33191;BME280;19554;42.652;23.364;2023-02-16T07:10:13;95878.19;;;4.94;54.77
33191;BME280;19554;42.652;23.364;2023-02-16T07:12:39;95875.84;;;5.23;54.30
33191;BME280;19554;42.652;23.364;2023-02-16T07:15:07;95863.44;;;5.35;54.48
33191;BME280;19554;42.652;23.364;2023-02-16T07:17:32;95784.56;;;4.95;53.93
33191;BME280;19554;42.652;23.364;2023-02-16T07:19:57;95862.66;;;5.65;52.74
33191;BME280;19554;42.652;23.364;2023-02-16T07:22:23;95859.50;;;5.56;53.21
33191;BME280;19554;42.652;23.364;2023-02-16T07:24:48;95852.91;;;4.98;54.77
33191;BME280;19554;42.652;23.364;2023-02-16T07:27:14;95837.03;;;4.98;54.63
33191;BME280;19554;42.652;23.364;2023-02-16T07:29:39;95842.59;;;5.27;54.19
33191;BME280;19554;42.652;23.364;2023-02-16T07:32:05;95846.31;;;5.38;53.18
33191;BME280;19554;42.652;23.364;2023-02-16T07:34:30;95843.88;;;5.36;53.89
33191;BME280;19554;42.652;23.364;2023-02-16T07:36:55;95832.09;;;5.02;54.58
33191;BME280;19554;42.652;23.364;2023-02-16T07:39:21;95844.00;;;4.74;55.75
33191;BME280;19554;42.652;23.364;2023-02-16T07:41:46;95838.81;;;4.86;55.84
33191;BME280;19554;42.652;23.364;2023-02-16T07:44:12;95835.72;;;4.71;55.71
33191;BME280;19554;42.652;23.364;2023-02-16T07:46:37;95840.41;;;4.87;55.85
33191;BME280;19554;42.652;23.364;2023-02-16T07:49:02;95818.66;;;4.67;56.22
33191;BME280;19554;42.652;23.364;2023-02-16T07:51:29;95840.84;;;4.84;56.17
33191;BME280;19554;42.652;23.364;2023-02-16T07:53:55;95841.66;;;4.85;55.27
33191;BME280;19554;42.652;23.364;2023-02-16T07:56:24;95856.28;;;4.87;55.70
33191;BME280;19554;42.652;23.364;2023-02-16T07:58:51;95844.97;;;4.98;55.44
33191;BME280;19554;42.652;23.364;2023-02-16T08:01:16;95853.63;;;5.06;55.05
33191;BME280;19554;42.652;23.364;2023-02-16T08:03:42;95846.34;;;5.01;54.82
33191;BME280;19554;42.652;23.364;2023-02-16T08:06:07;95836.44;;;4.96;54.84
33191;BME280;19554;42.652;23.364;2023-02-16T08:08:33;95856.28;;;5.06;55.36
33191;BME280;19554;42.652;23.364;2023-02-16T08:10:59;95847.53;;;5.05;54.54
33191;BME280;19554;42.652;23.364;2023-02-16T08:13:31;95848.16;;;5.19;54.83
33191;BME280;19554;42.652;23.364;2023-02-16T08:15:57;95848.09;;;5.26;54.58
33191;BME280;19554;42.652;23.364;2023-02-16T08:18:22;95857.72;;;5.38;54.70
33191;BME280;19554;42.652;23.364;2023-02-16T08:20:47;95851.09;;;5.47;54.53
33191;BME280;19554;42.652;23.364;2023-02-16T08:23:13;95863.88;;;5.51;54.86
33191;BME280;19554;42.652;23.364;2023-02-16T08:25:38;95869.09;;;5.69;54.03
33191;BME280;19554;42.652;23.364;2023-02-16T08:28:04;95858.50;;;5.69;55.64
33191;BME280;19554;42.652;23.364;2023-02-16T08:30:32;95864.06;;;5.79;55.48
33191;BME280;19554;42.652;23.364;2023-02-16T08:32:59;95864.06;;;5.79;54.22
33191;BME280;19554;42.652;23.364;2023-02-16T08:35:27;95865.22;;;5.83;53.70
33191;BME280;19554;42.652;23.364;2023-02-16T08:37:53;95851.72;;;6.03;53.82
33191;BME280;19554;42.652;23.364;2023-02-16T08:40:18;95854.41;;;6.27;53.00
33191;BME280;19554;42.652;23.364;2023-02-16T08:42:48;95859.34;;;6.35;52.34
33191;BME280;19554;42.652;23.364;2023-02-16T08:45:14;95869.84;;;6.30;52.63
33191;BME280;19554;42.652;23.364;2023-02-16T08:47:39;95861.44;;;6.33;52.68
33191;BME280;19554;42.652;23.364;2023-02-16T08:50:05;95818.06;;;6.04;52.72
33191;BME280;19554;42.652;23.364;2023-02-16T08:52:30;95863.84;;;6.34;52.62
33191;BME280;19554;42.652;23.364;2023-02-16T08:54:56;95860.16;;;6.24;53.02
33191;BME280;19554;42.652;23.364;2023-02-16T08:57:21;95859.25;;;6.30;53.69
33191;BME280;19554;42.652;23.364;2023-02-16T08:59:46;95855.09;;;6.57;52.83
33191;BME280;19554;42.652;23.364;2023-02-16T09:02:31;95849.56;;;6.59;52.63
33191;BME280;19554;42.652;23.364;2023-02-16T09:04:57;95850.13;;;6.73;52.23
33191;BME280;19554;42.652;23.364;2023-02-16T09:07:23;95849.28;;;6.96;51.58
33191;BME280;19554;42.652;23.364;2023-02-16T09:09:48;95853.56;;;6.97;51.98
33191;BME280;19554;42.652;23.364;2023-02-16T09:12:14;95855.59;;;7.18;51.11
33191;BME280;19554;42.652;23.364;2023-02-16T09:14:39;95843.41;;;7.34;50.63
33191;BME280;19554;42.652;23.364;2023-02-16T09:17:06;95851.25;;;7.69;49.69
33191;BME280;19554;42.652;23.364;2023-02-16T09:19:31;95833.72;;;7.85;49.25
33191;BME280;19554;42.652;23.364;2023-02-16T09:21:57;95846.03;;;7.46;50.37
33191;BME280;19554;42.652;23.364;2023-02-16T09:24:22;95770.91;;;7.05;49.65
33191;BME280;19554;42.652;23.364;2023-02-16T09:26:48;95840.25;;;7.49;49.98
33191;BME280;19554;42.652;23.364;2023-02-16T09:29:13;95839.41;;;7.60;49.58
33191;BME280;19554;42.652;23.364;2023-02-16T09:31:40;95827.72;;;7.61;49.96
33191;BME280;19554;42.652;23.364;2023-02-16T09:34:15;95829.00;;;7.58;49.85
33191;BME280;19554;42.652;23.364;2023-02-16T09:36:41;95826.63;;;7.74;50.10
33191;BME280;19554;42.652;23.364;2023-02-16T09:39:07;95826.66;;;7.62;49.89
33191;BME280;19554;42.652;23.364;2023-02-16T09:47:31;95819.88;;;8.00;49.36
33191;BME280;19554;42.652;23.364;2023-02-16T09:50:12;95809.91;;;8.07;49.02
33191;BME280;19554;42.652;23.364;2023-02-16T09:52:43;95787.66;;;7.79;48.88
33191;BME280;19554;42.652;23.364;2023-02-16T09:55:16;95814.94;;;7.75;49.10
33191;BME280;19554;42.652;23.364;2023-02-16T10:08:40;95797.16;;;8.09;48.78
33191;BME280;19554;42.652;23.364;2023-02-16T10:11:23;95783.47;;;8.17;48.56
33191;BME280;19554;42.652;23.364;2023-02-16T10:14:30;95784.91;;;8.25;47.91
33191;BME280;19554;42.652;23.364;2023-02-16T10:19:42;95758.16;;;7.98;48.17
33191;BME280;19554;42.652;23.364;2023-02-16T10:22:13;95753.00;;;8.08;48.21
33191;BME280;19554;42.652;23.364;2023-02-16T10:25:07;95771.63;;;8.08;48.03
33191;BME280;19554;42.652;23.364;2023-02-16T10:27:40;95767.09;;;7.92;48.52
33191;BME280;19554;42.652;23.364;2023-02-16T10:30:18;95775.97;;;7.80;48.92
33191;BME280;19554;42.652;23.364;2023-02-16T10:33:15;95770.81;;;7.91;48.89
33191;BME280;19554;42.652;23.364;2023-02-16T10:35:49;95771.22;;;7.99;48.22
33191;BME280;19554;42.652;23.364;2023-02-16T10:41:00;95764.28;;;7.98;48.10
33191;BME280;19554;42.652;23.364;2023-02-16T10:43:49;95759.78;;;7.99;48.43
33191;BME280;19554;42.652;23.364;2023-02-16T10:46:23;95759.59;;;8.05;48.30
33191;BME280;19554;42.652;23.364;2023-02-16T10:48:54;95747.41;;;8.26;47.69
33191;BME280;19554;42.652;23.364;2023-02-16T10:51:22;95750.50;;;8.18;47.89
33191;BME280;19554;42.652;23.364;2023-02-16T10:53:55;95732.44;;;8.20;47.40
33191;BME280;19554;42.652;23.364;2023-02-16T10:56:46;95743.50;;;8.51;47.12
33191;BME280;19554;42.652;23.364;2023-02-16T11:01:50;95691.91;;;8.13;47.06
33191;BME280;19554;42.652;23.364;2023-02-16T11:09:33;95725.44;;;8.75;46.55
33191;BME280;19554;42.652;23.364;2023-02-16T11:12:00;95645.00;;;8.24;46.28
33191;BME280;19554;42.652;23.364;2023-02-16T11:14:28;95725.44;;;8.75;45.97
33191;BME280;19554;42.652;23.364;2023-02-16T11:17:06;95723.47;;;8.87;45.88
33191;BME280;19554;42.652;23.364;2023-02-16T11:19:37;95701.25;;;8.76;45.72
33191;BME280;19554;42.652;23.364;2023-02-16T11:22:03;95620.06;;;8.08;45.73
33191;BME280;19554;42.652;23.364;2023-02-16T11:24:32;95711.47;;;8.63;46.00
33191;BME280;19554;42.652;23.364;2023-02-16T11:27:19;95708.78;;;8.41;46.52
33191;BME280;19554;42.652;23.364;2023-02-16T11:29:45;95662.34;;;8.10;46.76
33191;BME280;19554;42.652;23.364;2023-02-16T11:32:13;95705.91;;;8.42;46.69
33191;BME280;19554;42.652;23.364;2023-02-16T11:34:42;95705.22;;;8.52;46.56
33191;BME280;19554;42.652;23.364;2023-02-16T11:39:48;95695.69;;;8.56;46.19
33191;BME280;19554;42.652;23.364;2023-02-16T11:42:39;95692.97;;;8.51;46.27
33191;BME280;19554;42.652;23.364;2023-02-16T11:45:06;95681.69;;;8.44;46.20
33191;BME280;19554;42.652;23.364;2023-02-16T11:47:41;95642.56;;;8.39;47.05
33191;BME280;19554;42.652;23.364;2023-02-16T11:50:29;95698.16;;;8.85;45.75
33191;BME280;19554;42.652;23.364;2023-02-16T11:53:24;95684.66;;;8.91;45.21
33191;BME280;19554;42.652;23.364;2023-02-16T11:55:50;95682.28;;;8.95;45.22
33191;BME280;19554;42.652;23.364;2023-02-16T11:58:21;95683.00;;;9.12;45.15
33191;BME280;19554;42.652;23.364;2023-02-16T12:01:26;95680.84;;;9.09;44.97
33191;BME280;19554;42.652;23.364;2023-02-16T12:12:12;95661.97;;;9.43;44.26
33191;BME280;19554;42.652;23.364;2023-02-16T12:17:46;95649.78;;;9.52;43.67
33191;BME280;19554;42.652;23.364;2023-02-16T12:22:47;95640.44;;;9.49;44.33
33191;BME280;19554;42.652;23.364;2023-02-16T12:34:16;95623.84;;;9.80;42.82
33191;BME280;19554;42.652;23.364;2023-02-16T12:39:44;95624.91;;;9.79;42.52
33191;BME280;19554;42.652;23.364;2023-02-16T12:45:08;95603.59;;;9.84;42.16
33191;BME280;19554;42.652;23.364;2023-02-16T12:47:42;95611.59;;;9.79;41.58
33191;BME280;19554;42.652;23.364;2023-02-16T12:53:05;95607.13;;;9.89;42.21
33191;BME280;19554;42.652;23.364;2023-02-16T12:55:43;95597.81;;;9.92;41.92
33191;BME280;19554;42.652;23.364;2023-02-16T13:00:48;95578.03;;;9.88;41.99
33191;BME280;19554;42.652;23.364;2023-02-16T13:03:24;95597.31;;;10.00;41.87
33191;BME280;19554;42.652;23.364;2023-02-16T13:06:28;95588.28;;;10.06;41.50
33191;BME280;19554;42.652;23.364;2023-02-16T13:11:39;95583.97;;;9.95;41.97
33191;BME280;19554;42.652;23.364;2023-02-16T13:14:15;95586.63;;;10.00;41.54
33191;BME280;19554;42.652;23.364;2023-02-16T13:16:55;95578.97;;;10.09;41.74
33191;BME280;19554;42.652;23.364;2023-02-16T13:19:23;95578.69;;;10.05;41.56
33191;BME280;19554;42.652;23.364;2023-02-16T13:24:26;95573.91;;;10.12;40.58
33191;BME280;19554;42.652;23.364;2023-02-16T13:32:46;95567.50;;;10.18;40.70
33191;BME280;19554;42.652;23.364;2023-02-16T13:39:00;95556.38;;;10.32;41.06
33191;BME280;19554;42.652;23.364;2023-02-16T13:41:47;95554.81;;;10.41;40.93
33191;BME280;19554;42.652;23.364;2023-02-16T13:44:18;95556.97;;;10.49;40.29
33191;BME280;19554;42.652;23.364;2023-02-16T13:46:46;95553.25;;;10.55;40.33
33191;BME280;19554;42.652;23.364;2023-02-16T13:49:35;95551.66;;;10.64;40.18
33191;BME280;19554;42.652;23.364;2023-02-16T13:52:05;95559.16;;;10.67;40.01
33191;BME280;19554;42.652;23.364;2023-02-16T13:54:37;95486.91;;;10.11;40.02
33191;BME280;19554;42.652;23.364;2023-02-16T13:57:04;95554.34;;;10.64;40.00
33191;BME280;19554;42.652;23.364;2023-02-16T14:02:01;95552.75;;;10.63;39.42
33191;BME280;19554;42.652;23.364;2023-02-16T14:12:14;95538.06;;;10.71;40.11
33191;BME280;19554;42.652;23.364;2023-02-16T14:20:04;95492.38;;;10.62;39.71
33191;BME280;19554;42.652;23.364;2023-02-16T14:22:51;95534.06;;;10.89;39.03
33191;BME280;19554;42.652;23.364;2023-02-16T14:27:51;95523.91;;;10.71;39.44
33191;BME280;19554;42.652;23.364;2023-02-16T14:32:57;95526.03;;;10.63;39.81
33191;BME280;19554;42.652;23.364;2023-02-16T14:35:32;95514.25;;;10.49;39.79
33191;BME280;19554;42.652;23.364;2023-02-16T14:38:04;95532.44;;;10.57;39.87
33191;BME280;19554;42.652;23.364;2023-02-16T14:43:04;95536.69;;;10.48;40.23
33191;BME280;19554;42.652;23.364;2023-02-16T14:48:34;95532.41;;;10.52;39.91
33191;BME280;19554;42.652;23.364;2023-02-16T14:51:45;95536.94;;;10.52;40.09
33191;BME280;19554;42.652;23.364;2023-02-16T14:59:55;95529.75;;;10.57;40.10
33191;BME280;19554;42.652;23.364;2023-02-16T15:02:33;95520.41;;;10.50;40.13
33191;BME280;19554;42.652;23.364;2023-02-16T15:05:17;95531.63;;;10.47;40.04
33191;BME280;19554;42.652;23.364;2023-02-16T15:07:45;95529.72;;;10.37;40.38
33191;BME280;19554;42.652;23.364;2023-02-16T15:10:12;95517.94;;;10.28;40.52
33191;BME280;19554;42.652;23.364;2023-02-16T15:12:39;95527.28;;;10.35;40.62
33191;BME280;19554;42.652;23.364;2023-02-16T15:15:07;95530.25;;;10.39;40.79
33191;BME280;19554;42.652;23.364;2023-02-16T15:17:45;95526.50;;;10.35;41.13
33191;BME280;19554;42.652;23.364;2023-02-16T15:20:31;95542.50;;;10.30;42.26
33191;BME280;19554;42.652;23.364;2023-02-16T15:23:03;95531.25;;;10.23;42.69
33191;BME280;19554;42.652;23.364;2023-02-16T15:25:31;95526.44;;;10.19;43.25
33191;BME280;19554;42.652;23.364;2023-02-16T15:28:13;95492.97;;;9.86;43.07
33191;BME280;19554;42.652;23.364;2023-02-16T15:30:46;95536.00;;;10.05;43.47
33191;BME280;19554;42.652;23.364;2023-02-16T15:35:59;95537.00;;;9.89;43.73
33191;BME280;19554;42.652;23.364;2023-02-16T15:38:33;95533.72;;;9.77;44.20